Albany, Pennsylvania
Current Conditions -  °F | °C
As of 11:54 PM on Friday 24 Oct 2014 (Local Time) from KRDG Reporting Station
Clear Clear  
Wind Chill: 53°   Ceiling: Unl
Heat Index: 53°   Visibility: 10mi
Dew Point: 36°   Wind: 5mph
Humidity: 52%   Direction: 280°W
Pressure: 29.9"   Gusts: NA
Location:  40.6329°N, 75.8768°W
Report Text: KRDG 250354Z AUTO 28004KT 10SM CLR 12/02 A2990 RMK AO2 SLP128 T01170022
Loading
Personal Weather Stations






























Interactive Weather Map
Tropical Storm Tracking
New forecast layout! Learn more

10-Day Weather Forecast

Advertisements
Track Severe Weather on mobile